Clayton Lake, ME (04737)

2:47 AM EDT on May 01, 2017 (GMT -0400)
Northern Maine Regional At Presque Isle | | Change Station

Elev 531 ft 46.69 °N, 68.04 °W | Updated 51 minutes ago

Rain
Rain
42 °F
Feels Like 42 °F
N
0
Wind Variable Wind from North

Today
High -- | Low -- °F
--% Chance of Precip.
Yesterday
High -- | Low -- °F
Precip. -- in
Pressure 30.31 in
Visibility 10.0 miles
Clouds Overcast 6000 ft
Dew Point 32 °F
Humidity 67%
Rainfall 0.00 in
Snow Depth Not available.
5:23 AM 7:47 PM
Waxing Crescent, 30% visible
METAR KPQI 010556Z AUTO 00000KT 10SM OVC060 06/00 A3018 RMK AO2 SLP264 T00560000 10094 20050 58009
Pressure 30.31 in
Visibility 10.0 miles
Clouds Overcast 6000 ft
Dew Point 32 °F
Humidity 67%
Rainfall 0.00 in
Snow Depth Not available.
5:23 AM 7:47 PM
Waxing Crescent, 30% visible
METAR KPQI 010556Z AUTO 00000KT 10SM OVC060 06/00 A3018 RMK AO2 SLP264 T00560000 10094 20050 58009

Get Severe Weather Alerts

Thanks for signing up!

Be on the lookout for a verification email in your inbox.

You'll start receiving the daily forecast at 8 AM.

×

10-Day Weather Forecast

Almanac

Astronomy

May. 01, 2017 Rise Set
Actual Time
Civil Twilight
Nautical Twilight
Astronomical Twilight
Moon
Length of Visible Light
Length of Day
Tomorrow will be .
, % of the Moon is Illuminated

Today's Extremes

State Highs State Lows

Community

WunderPhotos

WunderBlog® & News

Nearby

Air Quality

  Air Quality AQ Index Pollutant
Not available.

Snow Depth

Station Depth Elevation

Earthquake Activity

City Distance Mag. Time & Date
Minimum magnitude displayed is 2.5.

Coastal Water Temperatures

Place Temperature

Stations

Nearby Weather Stations

Station Location Temp. Windchill Dew Point Humidity Wind Precip. Elev Updated Type
                   

Watches & Warnings

There are currently no watches in effect.